createdAt,value
2019-04-21T00:01:51.075Z,56.00
2019-04-21T00:04:33.277Z,55.90
2019-04-21T00:07:10.418Z,56.20
2019-04-21T00:09:50.177Z,56.30
2019-04-21T00:12:09.972Z,56.50
2019-04-21T00:14:31.242Z,56.70
2019-04-21T00:16:58.022Z,57.40
2019-04-21T00:22:26.113Z,57.90
2019-04-21T00:25:07.696Z,58.40
2019-04-21T00:27:39.614Z,58.70
2019-04-21T00:30:19.371Z,59.20
2019-04-21T00:32:41.990Z,59.50
2019-04-21T00:35:06.400Z,60.10
2019-04-21T00:43:41.302Z,60.70
2019-04-21T00:46:07.892Z,60.70
2019-04-21T00:48:51.188Z,61.10
2019-04-21T00:56:41.378Z,62.50
2019-04-21T00:59:16.388Z,62.50
2019-04-21T01:01:44.844Z,63.10
2019-04-21T01:04:09.713Z,63.10
2019-04-21T01:07:05.589Z,63.80
2019-04-21T01:09:29.175Z,63.90
2019-04-21T01:12:03.724Z,63.90
2019-04-21T01:14:35.944Z,64.80
2019-04-21T01:17:06.226Z,64.80
2019-04-21T01:19:27.005Z,64.90
2019-04-21T01:21:45.365Z,66.10
2019-04-21T01:24:21.963Z,67.10
2019-04-21T01:26:58.083Z,67.50
2019-04-21T01:29:37.200Z,68.60
2019-04-21T01:32:13.166Z,67.70
2019-04-21T01:34:32.997Z,68.60
2019-04-21T01:37:02.633Z,68.70
2019-04-21T01:39:42.776Z,68.70
2019-04-21T01:42:03.788Z,69.70
2019-04-21T01:46:58.745Z,71.70
2019-04-21T01:49:26.664Z,73.50
2019-04-21T01:52:17.832Z,72.60
2019-04-21T01:54:43.558Z,74.10
2019-04-21T01:57:12.968Z,74.50
2019-04-21T01:59:34.975Z,75.00
2019-04-21T02:02:17.176Z,74.30
2019-04-21T02:04:50.062Z,73.90
2019-04-21T02:07:15.146Z,73.90
2019-04-21T02:09:44.596Z,74.20
2019-04-21T02:12:18.800Z,74.60
2019-04-21T02:14:50.368Z,75.00
2019-04-21T02:17:16.282Z,76.50
2019-04-21T02:19:45.107Z,76.70
2019-04-21T02:22:21.445Z,76.60
2019-04-21T02:24:58.348Z,76.60
2019-04-21T02:27:19.198Z,75.90
2019-04-21T02:29:47.405Z,75.70
2019-04-21T02:32:26.099Z,76.40
2019-04-21T02:35:06.364Z,76.70
2019-04-21T02:37:38.390Z,76.40
2019-04-21T02:42:27.835Z,77.40
2019-04-21T02:45:03.926Z,77.70
2019-04-21T02:47:43.160Z,78.50
2019-04-21T02:55:17.902Z,78.40
2019-04-21T02:57:51.375Z,78.30
2019-04-21T03:00:23.776Z,78.50
2019-04-21T03:03:09.252Z,78.50
2019-04-21T03:13:14.363Z,80.30
2019-04-21T03:15:53.460Z,80.30
2019-04-21T03:21:00.697Z,79.90
2019-04-21T03:28:13.553Z,81.60
2019-04-21T03:31:11.601Z,82.20
2019-04-21T03:36:27.200Z,80.50
2019-04-21T03:39:11.952Z,80.20
2019-04-21T03:40:41.232Z,81.10
2019-04-21T03:43:34.809Z,81.20
2019-04-21T03:46:02.123Z,81.10
2019-04-21T03:48:36.760Z,81.00
2019-04-21T03:51:07.137Z,80.70
2019-04-21T03:53:32.414Z,81.00
2019-04-21T03:56:04.118Z,81.10
2019-04-21T03:58:46.960Z,81.20
2019-04-21T04:01:07.820Z,81.80
2019-04-21T04:04:05.800Z,82.00
2019-04-21T04:11:44.008Z,83.00
2019-04-21T04:16:49.490Z,85.60
2019-04-21T04:19:07.765Z,85.60
2019-04-21T04:21:47.888Z,85.30
2019-04-21T04:24:19.653Z,84.60
2019-04-21T04:26:45.576Z,84.00
2019-04-21T04:29:12.348Z,83.70
2019-04-21T04:31:52.837Z,84.70
2019-04-21T04:34:14.618Z,84.00
2019-04-21T04:42:08.022Z,83.10
2019-04-21T04:44:26.457Z,83.00
2019-04-21T04:46:55.782Z,82.60
2019-04-21T04:52:18.879Z,82.80
2019-04-21T04:54:32.521Z,83.20
2019-04-21T04:59:47.539Z,83.30
2019-04-21T05:02:20.286Z,83.70
2019-04-21T05:04:56.699Z,83.40
2019-04-21T05:07:17.458Z,83.60
2019-04-21T05:09:46.483Z,84.90
2019-04-21T05:12:11.889Z,85.30
2019-04-21T05:17:23.012Z,85.40
2019-04-21T05:19:57.386Z,85.00
2019-04-21T05:22:17.321Z,85.20
2019-04-21T05:24:33.771Z,85.40
2019-04-21T05:27:03.181Z,85.20
2019-04-21T05:29:40.256Z,85.00
2019-04-21T05:35:00.219Z,84.00
2019-04-21T05:37:43.417Z,84.10
2019-04-21T05:40:10.545Z,84.20
2019-04-21T05:42:43.826Z,84.20
2019-04-21T05:45:19.346Z,83.50
2019-04-21T05:47:55.786Z,84.90
2019-04-21T05:50:16.576Z,84.20
2019-04-21T05:52:44.684Z,83.50
2019-04-21T05:55:31.783Z,83.10
2019-04-21T05:57:54.375Z,82.60
2019-04-21T06:00:39.021Z,82.70
2019-04-21T06:02:57.774Z,81.30
2019-04-21T06:05:32.513Z,80.20
2019-04-21T06:08:00.426Z,79.70
2019-04-21T06:10:40.436Z,79.50
2019-04-21T06:13:06.074Z,79.30
2019-04-21T06:15:41.318Z,79.30
2019-04-21T06:18:06.397Z,78.90
2019-04-21T06:20:35.483Z,78.20
2019-04-21T06:23:05.671Z,77.90
2019-04-21T06:28:10.815Z,78.10
2019-04-21T06:30:47.024Z,77.20
2019-04-21T06:33:11.983Z,76.30
2019-04-21T06:38:58.280Z,76.70
2019-04-21T06:41:21.075Z,76.80
2019-04-21T06:43:49.986Z,76.60
2019-04-21T06:46:21.361Z,76.10
2019-04-21T06:48:53.662Z,75.30
2019-04-21T06:51:20.374Z,75.10
2019-04-21T06:54:04.110Z,74.90
2019-04-21T06:59:01.427Z,75.10
2019-04-21T07:01:36.023Z,74.30
2019-04-21T07:04:11.510Z,73.50
2019-04-21T07:06:38.667Z,72.80
2019-04-21T07:11:32.769Z,71.40
2019-04-21T07:14:20.855Z,71.20
2019-04-21T07:16:39.115Z,70.40
2019-04-21T07:19:12.712Z,70.50
2019-04-21T07:21:35.641Z,70.30
2019-04-21T07:24:05.283Z,69.20
2019-04-21T07:26:36.745Z,70.20
2019-04-21T07:29:12.274Z,68.80
2019-04-21T07:31:40.459Z,67.60
2019-04-21T07:34:03.986Z,66.60
2019-04-21T07:36:47.646Z,66.30
2019-04-21T07:39:00.212Z,66.10
2019-04-21T07:41:31.291Z,66.00
2019-04-21T07:43:57.210Z,66.60
2019-04-21T07:46:25.405Z,66.70
2019-04-21T07:49:06.566Z,65.50
2019-04-21T07:51:45.635Z,64.30
2019-04-21T07:54:18.419Z,64.20
2019-04-21T07:56:28.316Z,64.70
2019-04-21T07:59:15.478Z,64.60
2019-04-21T08:01:45.302Z,63.70
2019-04-21T08:04:24.463Z,63.30
2019-04-21T08:06:47.851Z,62.30
2019-04-21T08:09:13.696Z,61.60
2019-04-21T08:11:36.740Z,59.50
2019-04-21T08:14:19.263Z,59.50
2019-04-21T08:16:44.925Z,58.50
2019-04-21T08:19:13.069Z,59.10
2019-04-21T08:21:51.458Z,58.90
2019-04-21T08:24:15.019Z,57.90
2019-04-21T08:26:45.065Z,57.80
2019-04-21T08:29:25.768Z,56.90
2019-04-21T08:32:05.486Z,56.10
2019-04-21T08:36:44.965Z,54.20
2019-04-21T08:39:17.983Z,52.80
2019-04-21T08:41:43.950Z,52.30
2019-04-21T08:44:20.644Z,51.80
2019-04-21T08:46:49.081Z,50.80
2019-04-21T08:49:15.888Z,49.10
2019-04-21T08:51:51.697Z,50.10
2019-04-21T08:54:22.022Z,47.80
2019-04-21T08:56:52.934Z,47.90
2019-04-21T08:59:25.479Z,46.80
2019-04-21T09:01:58.679Z,46.00
2019-04-21T09:04:24.530Z,44.20
2019-04-21T09:09:31.969Z,41.30
2019-04-21T09:11:59.723Z,39.80
2019-04-21T09:14:28.395Z,39.80
2019-04-21T09:16:53.433Z,40.60
2019-04-21T09:19:38.647Z,39.00
2019-04-21T09:22:03.881Z,37.90
2019-04-21T09:24:31.567Z,37.70
2019-04-21T09:26:57.529Z,37.50
2019-04-21T09:29:22.130Z,37.30
2019-04-21T09:31:43.569Z,37.30
2019-04-21T09:34:16.375Z,37.10
2019-04-21T09:36:46.433Z,35.90
2019-04-21T09:39:16.791Z,34.90
2019-04-21T09:41:42.922Z,34.40
2019-04-21T09:44:18.736Z,32.90
2019-04-21T09:46:49.759Z,31.90
2019-04-21T09:49:14.454Z,32.90
2019-04-21T09:51:41.857Z,33.10
2019-04-21T09:54:14.914Z,32.50
2019-04-21T09:56:47.329Z,32.90
2019-04-21T09:59:19.356Z,33.40
2019-04-21T10:01:57.164Z,33.20
2019-04-21T10:04:12.011Z,33.50
2019-04-21T10:06:40.578Z,32.90
2019-04-21T10:09:14.160Z,32.20
2019-04-21T10:11:40.063Z,33.00
2019-04-21T10:14:09.622Z,30.90
2019-04-21T10:16:42.975Z,30.90
2019-04-21T10:19:11.407Z,31.00
2019-04-21T10:21:40.319Z,31.70
2019-04-21T10:24:10.385Z,31.20
2019-04-21T10:26:39.111Z,30.90
2019-04-21T10:29:14.776Z,31.00
2019-04-21T10:31:38.746Z,30.70
2019-04-21T10:37:20.907Z,29.90
2019-04-21T10:39:51.477Z,30.30
2019-04-21T10:42:21.373Z,29.50
2019-04-21T10:44:49.948Z,28.90
2019-04-21T10:47:18.625Z,28.30
2019-04-21T10:49:48.566Z,28.90
2019-04-21T10:52:25.042Z,28.30
2019-04-21T10:55:11.209Z,28.50
2019-04-21T10:57:32.737Z,28.20
2019-04-21T11:00:01.483Z,28.50
2019-04-21T11:02:41.092Z,28.00
2019-04-21T11:05:09.859Z,28.10
2019-04-21T11:08:01.086Z,27.90
2019-04-21T11:10:22.280Z,27.30
2019-04-21T11:12:52.498Z,27.20
2019-04-21T11:15:21.221Z,26.80
2019-04-21T11:17:50.632Z,27.30
2019-04-21T11:20:19.352Z,27.20
2019-04-21T11:22:47.780Z,26.60
2019-04-21T11:25:16.228Z,26.60
2019-04-21T11:27:44.885Z,27.10
2019-04-21T11:30:13.761Z,27.20
2019-04-21T11:32:44.945Z,26.60
2019-04-21T11:35:12.925Z,26.90
2019-04-21T11:37:42.193Z,25.90
2019-04-21T11:40:14.910Z,25.80
2019-04-21T11:42:43.860Z,26.20
2019-04-21T11:45:30.657Z,26.20
2019-04-21T11:48:16.611Z,26.50
2019-04-21T11:50:46.622Z,25.40
2019-04-21T11:53:15.264Z,25.70
2019-04-21T11:55:47.010Z,25.30
2019-04-21T11:58:14.122Z,25.30
2019-04-21T12:00:43.249Z,24.80
2019-04-21T12:03:13.991Z,24.90
2019-04-21T12:05:41.832Z,24.60
2019-04-21T12:08:21.246Z,24.70
2019-04-21T12:10:41.728Z,24.20
2019-04-21T12:13:10.334Z,23.30
2019-04-21T12:15:38.976Z,24.00
2019-04-21T12:18:07.994Z,22.90
2019-04-21T12:20:37.645Z,22.90
2019-04-21T12:23:06.759Z,21.30
2019-04-21T12:25:40.980Z,20.70
2019-04-21T12:28:10.289Z,20.10
2019-04-21T12:30:39.784Z,19.90
2019-04-21T12:33:16.151Z,18.60
2019-04-21T12:35:45.951Z,17.60
2019-04-21T12:38:14.527Z,17.60
2019-04-21T12:40:44.276Z,17.30
2019-04-21T12:43:12.798Z,17.40
2019-04-21T12:45:42.003Z,16.60
2019-04-21T12:48:10.852Z,16.10
2019-04-21T12:50:39.601Z,15.90
2019-04-21T12:53:09.445Z,16.20
2019-04-21T12:55:42.796Z,16.50
2019-04-21T12:58:08.483Z,16.10
2019-04-21T13:00:36.952Z,16.20
2019-04-21T13:03:05.794Z,16.20
2019-04-21T13:05:35.695Z,16.00
2019-04-21T13:08:04.318Z,15.60
2019-04-21T13:10:33.922Z,15.10
2019-04-21T13:13:03.756Z,14.80
2019-04-21T13:15:33.553Z,14.20
2019-04-21T13:18:02.688Z,14.20
2019-04-21T13:20:31.375Z,13.90
2019-04-21T13:22:59.826Z,13.90
2019-04-21T13:25:29.665Z,13.60
2019-04-21T13:27:58.649Z,13.50
2019-04-21T13:30:28.352Z,13.20
2019-04-21T13:32:58.644Z,13.00
2019-04-21T13:35:28.761Z,13.10
2019-04-21T13:37:58.379Z,13.00
2019-04-21T13:40:45.175Z,13.10
2019-04-21T13:43:04.366Z,13.40
2019-04-21T13:45:34.372Z,13.10
2019-04-21T13:48:04.502Z,12.90
2019-04-21T13:50:33.279Z,12.60
2019-04-21T13:53:02.790Z,12.80
2019-04-21T13:55:31.874Z,12.30
2019-04-21T13:58:00.474Z,12.40
2019-04-21T14:00:31.675Z,12.20
2019-04-21T14:03:00.874Z,12.40
2019-04-21T14:05:30.685Z,12.20
2019-04-21T14:08:00.850Z,12.10
2019-04-21T14:10:29.420Z,11.70
2019-04-21T14:12:58.382Z,11.80
2019-04-21T14:15:28.314Z,11.80
2019-04-21T14:17:58.338Z,11.80
2019-04-21T14:20:27.160Z,11.70
2019-04-21T14:22:59.574Z,11.70
2019-04-21T14:25:25.906Z,11.50
2019-04-21T14:27:55.948Z,11.40
2019-04-21T14:30:26.302Z,11.30
2019-04-21T14:32:56.220Z,12.30
2019-04-21T14:35:25.226Z,11.70
2019-04-21T14:37:53.755Z,11.40
2019-04-21T14:40:25.593Z,11.30
2019-04-21T14:42:52.517Z,11.30
2019-04-21T14:45:38.765Z,11.50
2019-04-21T14:48:25.687Z,11.30
2019-04-21T14:50:55.826Z,10.90
2019-04-21T14:53:29.688Z,10.70
2019-04-21T14:55:59.530Z,10.60
2019-04-21T14:58:28.156Z,10.40
2019-04-21T15:00:59.989Z,10.60
2019-04-21T15:03:29.971Z,10.90
2019-04-21T15:05:58.863Z,11.20
2019-04-21T15:08:27.320Z,11.30
2019-04-21T15:10:56.875Z,11.10
2019-04-21T15:13:25.918Z,10.90
2019-04-21T15:15:56.148Z,10.60
2019-04-21T15:18:24.777Z,10.60
2019-04-21T15:20:53.225Z,10.50
2019-04-21T15:23:24.458Z,10.40
2019-04-21T15:25:52.363Z,10.20
2019-04-21T15:28:22.014Z,10.30
2019-04-21T15:30:50.602Z,10.40
2019-04-21T15:33:20.334Z,10.50
2019-04-21T15:35:49.160Z,10.50
2019-04-21T15:38:17.900Z,10.30
2019-04-21T15:40:51.941Z,10.30
2019-04-21T15:43:16.662Z,10.20
2019-04-21T15:45:45.105Z,10.10
2019-04-21T15:48:14.027Z,10.10
2019-04-21T15:50:44.051Z,10.00
2019-04-21T15:53:14.323Z,10.10
2019-04-21T15:55:44.549Z,10.00
2019-04-21T15:58:14.680Z,10.90
2019-04-21T16:00:52.359Z,11.00
2019-04-21T16:03:21.144Z,10.50
2019-04-21T16:05:50.878Z,10.40
2019-04-21T16:08:20.636Z,10.40
2019-04-21T16:10:56.006Z,10.40
2019-04-21T16:13:21.463Z,10.80
2019-04-21T16:15:50.542Z,11.00
2019-04-21T16:18:20.334Z,11.50
2019-04-21T16:20:50.107Z,12.10
2019-04-21T16:23:20.281Z,12.70
2019-04-21T16:25:48.891Z,13.50
2019-04-21T16:28:17.430Z,14.20
2019-04-21T16:30:46.553Z,15.10
2019-04-21T16:33:16.001Z,15.90
2019-04-21T16:35:44.598Z,16.70
2019-04-21T16:38:13.368Z,17.40
2019-04-21T16:40:50.785Z,18.30
2019-04-21T16:43:12.280Z,18.50
2019-04-21T16:45:41.150Z,19.10
2019-04-21T16:48:09.684Z,19.90
2019-04-21T16:50:39.364Z,19.80
2019-04-21T16:53:19.912Z,20.10
2019-04-21T16:55:51.125Z,20.50
2019-04-21T16:58:28.965Z,20.90
2019-04-21T17:01:11.023Z,21.70
2019-04-21T17:03:36.824Z,22.10
2019-04-21T17:06:06.891Z,22.40
2019-04-21T17:08:36.697Z,22.40
2019-04-21T17:11:12.902Z,23.10
2019-04-21T17:13:35.824Z,23.10
2019-04-21T17:16:30.043Z,23.70
2019-04-21T17:18:48.916Z,23.60
2019-04-21T17:21:06.976Z,23.90
2019-04-21T17:23:35.560Z,24.00
2019-04-21T17:26:05.426Z,24.50
2019-04-21T17:28:34.385Z,24.90
2019-04-21T17:31:04.566Z,24.80
2019-04-21T17:33:33.898Z,25.00
2019-04-21T17:36:04.937Z,25.30
2019-04-21T17:38:34.245Z,25.60
2019-04-21T17:41:14.122Z,25.80
2019-04-21T17:43:33.849Z,26.20
2019-04-21T17:46:02.802Z,26.50
2019-04-21T17:48:32.471Z,26.90
2019-04-21T17:51:14.900Z,27.20
2019-04-21T17:53:53.781Z,27.30
2019-04-21T17:56:47.841Z,27.70
2019-04-21T17:59:15.259Z,27.70
2019-04-21T18:01:45.535Z,28.00
2019-04-21T18:04:15.294Z,28.20
2019-04-21T18:06:42.290Z,28.40
2019-04-21T18:09:24.572Z,28.80
2019-04-21T18:11:49.289Z,28.90
2019-04-21T18:13:55.612Z,29.30
2019-04-21T18:16:31.632Z,29.50
2019-04-21T18:18:55.096Z,29.70
2019-04-21T18:21:32.424Z,29.80
2019-04-21T18:24:10.677Z,30.00
2019-04-21T18:26:40.615Z,30.20
2019-04-21T18:29:03.493Z,30.30
2019-04-21T18:31:38.782Z,30.80
2019-04-21T18:34:13.911Z,31.10
2019-04-21T18:36:48.004Z,31.60
2019-04-21T18:39:43.732Z,31.80
2019-04-21T18:42:17.471Z,32.10
2019-04-21T18:45:05.774Z,32.40
2019-04-21T18:47:28.991Z,32.80
2019-04-21T18:49:52.367Z,33.70
2019-04-21T18:52:38.618Z,34.60
2019-04-21T18:55:08.457Z,34.70
2019-04-21T18:57:33.166Z,34.70
2019-04-21T18:59:53.289Z,34.90
2019-04-21T19:02:23.076Z,35.20
2019-04-21T19:04:54.441Z,35.70
2019-04-21T19:07:37.897Z,35.50
2019-04-21T19:10:26.679Z,35.80
2019-04-21T19:13:09.191Z,36.50
2019-04-21T19:15:09.062Z,37.20
2019-04-21T19:20:12.961Z,38.20
2019-04-21T19:22:41.664Z,39.00
2019-04-21T19:25:12.931Z,39.50
2019-04-21T19:27:42.221Z,39.50
2019-04-21T19:32:43.058Z,40.10
2019-04-21T19:34:58.194Z,40.60
2019-04-21T19:37:27.865Z,40.90
2019-04-21T19:40:07.746Z,41.50
2019-04-21T19:42:35.449Z,41.30
2019-04-21T19:45:10.787Z,41.30
2019-04-21T19:47:45.099Z,42.00
2019-04-21T19:50:12.017Z,42.10
2019-04-21T19:52:36.806Z,42.20
2019-04-21T19:54:56.708Z,42.40
2019-04-21T19:57:27.234Z,42.40
2019-04-21T19:59:59.434Z,43.10
2019-04-21T20:02:26.797Z,43.30
2019-04-21T20:05:03.079Z,43.60
2019-04-21T20:07:41.647Z,43.70
2019-04-21T20:10:20.844Z,43.90
2019-04-21T20:12:45.305Z,44.30
2019-04-21T20:15:20.006Z,44.40
2019-04-21T20:17:43.810Z,44.70
2019-04-21T20:19:56.349Z,44.90
2019-04-21T20:22:32.724Z,45.10
2019-04-21T20:25:02.345Z,45.30
2019-04-21T20:27:34.754Z,45.70
2019-04-21T20:30:19.272Z,45.70
2019-04-21T20:32:47.426Z,46.10
2019-04-21T20:35:18.114Z,46.10
2019-04-21T20:37:42.424Z,46.30
2019-04-21T20:40:02.237Z,47.00
2019-04-21T20:42:40.220Z,47.60
2019-04-21T20:45:30.731Z,48.00
2019-04-21T20:47:50.529Z,48.90
2019-04-21T20:50:29.918Z,48.90
2019-04-21T20:53:07.241Z,49.50
2019-04-21T20:55:27.506Z,50.30
2019-04-21T20:58:02.053Z,50.00
2019-04-21T21:01:16.591Z,50.50
2019-04-21T21:03:30.355Z,50.70
2019-04-21T21:05:50.437Z,50.70
2019-04-21T21:08:30.896Z,50.90
2019-04-21T21:10:53.273Z,51.00
2019-04-21T21:13:44.368Z,51.60
2019-04-21T21:16:15.888Z,52.20
2019-04-21T21:21:03.339Z,52.10
2019-04-21T21:23:20.445Z,52.20
2019-04-21T21:25:54.489Z,52.80
2019-04-21T21:28:24.923Z,52.80
2019-04-21T21:30:52.930Z,53.30
2019-04-21T21:33:22.771Z,53.50
2019-04-21T21:36:03.382Z,53.40
2019-04-21T21:38:30.918Z,54.20
2019-04-21T21:40:53.109Z,54.60
2019-04-21T21:43:17.015Z,54.70
2019-04-21T21:45:47.566Z,55.20
2019-04-21T21:48:30.058Z,55.70
2019-04-21T21:50:51.283Z,56.10
2019-04-21T21:53:16.191Z,56.30
2019-04-21T21:55:42.658Z,56.80
2019-04-21T21:58:12.420Z,57.10
2019-04-21T22:00:48.570Z,57.60
2019-04-21T22:03:19.691Z,58.00
2019-04-21T22:05:50.476Z,57.90
2019-04-21T22:08:14.340Z,58.80
2019-04-21T22:10:43.282Z,58.80
2019-04-21T22:13:15.872Z,59.20
2019-04-21T22:15:41.988Z,59.60
2019-04-21T22:18:31.514Z,59.90
2019-04-21T22:20:57.581Z,60.50
2019-04-21T22:23:23.308Z,60.50
2019-04-21T22:25:41.949Z,60.50
2019-04-21T22:28:11.679Z,61.40
2019-04-21T22:30:44.717Z,61.80
2019-04-21T22:33:14.228Z,61.70
2019-04-21T22:35:46.284Z,61.90
2019-04-21T22:38:27.294Z,62.20
2019-04-21T22:40:49.101Z,62.60
2019-04-21T22:43:21.758Z,62.20
2019-04-21T22:45:41.266Z,62.40
2019-04-21T22:48:14.353Z,62.50
2019-04-21T22:50:40.703Z,62.40
2019-04-21T22:53:11.730Z,62.90
2019-04-21T22:55:40.926Z,63.20
2019-04-21T22:58:09.715Z,63.50
2019-04-21T23:00:44.417Z,63.50
2019-04-21T23:03:13.586Z,63.40
2019-04-21T23:05:42.715Z,64.00
2019-04-21T23:08:09.324Z,64.60
2019-04-21T23:10:41.424Z,64.80
2019-04-21T23:13:13.158Z,66.60
2019-04-21T23:15:46.136Z,67.10
2019-04-21T23:18:25.983Z,67.10
2019-04-21T23:20:58.750Z,67.50
2019-04-21T23:23:29.978Z,68.10
2019-04-21T23:25:53.258Z,68.50
2019-04-21T23:28:24.058Z,69.50
2019-04-21T23:33:30.628Z,70.10
2019-04-21T23:36:07.481Z,70.70
2019-04-21T23:38:37.520Z,70.30
2019-04-21T23:41:02.386Z,70.10
2019-04-21T23:43:32.758Z,69.70
2019-04-21T23:46:04.278Z,70.00
2019-04-21T23:48:43.841Z,70.30
2019-04-21T23:51:14.027Z,70.60
2019-04-21T23:53:31.128Z,70.80
2019-04-21T23:55:59.672Z,71.20
2019-04-21T23:58:31.271Z,71.40
